createdAt,value
2019-03-30T00:01:05.101Z,5.23
2019-03-30T00:03:35.830Z,5.24
2019-03-30T00:06:06.576Z,4.95
2019-03-30T00:08:37.347Z,5.01
2019-03-30T00:11:08.122Z,4.94
2019-03-30T00:13:39.347Z,5.01
2019-03-30T00:16:10.088Z,4.91
2019-03-30T00:18:41.492Z,5.02
2019-03-30T00:21:12.488Z,5.05
2019-03-30T00:23:43.250Z,5.13
2019-03-30T00:26:13.988Z,5.18
2019-03-30T00:28:44.759Z,5.12
2019-03-30T00:31:15.538Z,5.04
2019-03-30T00:33:46.322Z,4.97
2019-03-30T00:36:17.058Z,4.94
2019-03-30T00:38:47.835Z,4.95
2019-03-30T00:41:18.629Z,4.89
2019-03-30T00:43:49.359Z,4.86
2019-03-30T00:46:20.129Z,4.64
2019-03-30T00:48:50.924Z,4.44
2019-03-30T00:51:21.707Z,4.20
2019-03-30T00:53:52.454Z,3.95
2019-03-30T00:56:23.199Z,3.94
2019-03-30T00:58:53.950Z,3.84
2019-03-30T01:01:24.721Z,3.93
2019-03-30T01:03:55.470Z,4.14
2019-03-30T01:06:26.266Z,4.16
2019-03-30T01:08:57.036Z,4.05
2019-03-30T01:11:27.847Z,4.13
2019-03-30T01:13:59.395Z,4.35
2019-03-30T01:16:30.098Z,4.23
2019-03-30T01:19:00.887Z,3.96
2019-03-30T01:21:31.692Z,3.74
2019-03-30T01:24:02.703Z,3.85
2019-03-30T01:26:33.450Z,3.74
2019-03-30T01:29:04.339Z,3.70
2019-03-30T01:31:35.151Z,3.93
2019-03-30T01:34:05.922Z,3.90
2019-03-30T01:36:36.703Z,4.03
2019-03-30T01:39:08.391Z,4.19
2019-03-30T01:41:39.207Z,4.13
2019-03-30T01:44:11.010Z,4.13
2019-03-30T01:46:41.730Z,4.08
2019-03-30T01:49:12.497Z,4.03
2019-03-30T01:51:43.216Z,4.15
2019-03-30T01:54:14.130Z,4.02
2019-03-30T01:56:44.866Z,4.08
2019-03-30T01:59:15.631Z,4.16
2019-03-30T02:01:46.347Z,4.01
2019-03-30T02:04:17.230Z,3.92
2019-03-30T02:06:47.969Z,3.94
2019-03-30T02:09:18.774Z,3.97
2019-03-30T02:11:49.503Z,3.97
2019-03-30T02:14:20.758Z,4.22
2019-03-30T02:16:51.864Z,4.31
2019-03-30T02:19:22.609Z,4.17
2019-03-30T02:21:53.340Z,4.12
2019-03-30T02:24:24.380Z,4.13
2019-03-30T02:26:55.106Z,4.10
2019-03-30T02:29:25.859Z,4.19
2019-03-30T02:31:56.666Z,4.20
2019-03-30T02:34:27.483Z,4.29
2019-03-30T02:36:58.227Z,4.28
2019-03-30T02:39:29.016Z,4.32
2019-03-30T02:41:59.814Z,4.21
2019-03-30T02:44:30.613Z,4.12
2019-03-30T02:47:01.389Z,4.17
2019-03-30T02:49:32.238Z,4.24
2019-03-30T02:52:03.045Z,4.16
2019-03-30T02:54:34.028Z,4.17
2019-03-30T02:57:04.761Z,4.26
2019-03-30T02:59:35.508Z,4.19
2019-03-30T03:02:06.246Z,4.31
2019-03-30T03:04:37.080Z,4.26
2019-03-30T03:07:07.838Z,4.25
2019-03-30T03:09:38.726Z,4.16
2019-03-30T03:12:09.431Z,4.23
2019-03-30T03:14:40.591Z,4.38
2019-03-30T03:17:11.296Z,4.28
2019-03-30T03:19:42.031Z,4.24
2019-03-30T03:22:12.780Z,4.15
2019-03-30T03:24:43.895Z,4.06
2019-03-30T03:27:14.703Z,4.16
2019-03-30T03:29:45.487Z,4.16
2019-03-30T03:32:16.269Z,4.26
2019-03-30T03:34:47.089Z,4.35
2019-03-30T03:37:17.806Z,4.31
2019-03-30T03:39:49.784Z,4.32
2019-03-30T03:42:20.526Z,4.29
2019-03-30T03:44:51.345Z,4.38
2019-03-30T03:47:22.087Z,4.36
2019-03-30T03:49:52.830Z,4.35
2019-03-30T03:52:23.532Z,4.33
2019-03-30T03:54:55.717Z,4.18
2019-03-30T03:57:28.678Z,4.16
2019-03-30T04:00:01.796Z,4.11
2019-03-30T04:02:37.402Z,4.06
2019-03-30T04:05:09.892Z,3.85
2019-03-30T04:07:43.525Z,3.79
2019-03-30T04:10:15.436Z,3.71
2019-03-30T04:12:47.636Z,3.72
2019-03-30T04:15:28.578Z,3.71
2019-03-30T04:17:59.309Z,3.60
2019-03-30T04:20:30.087Z,3.47
2019-03-30T04:23:00.835Z,3.39
2019-03-30T04:25:31.785Z,3.28
2019-03-30T04:28:03.606Z,3.30
2019-03-30T04:30:34.407Z,3.39
2019-03-30T04:33:05.325Z,3.43
2019-03-30T04:35:37.203Z,3.42
2019-03-30T04:38:07.968Z,3.25
2019-03-30T04:40:38.903Z,3.39
2019-03-30T04:43:09.638Z,3.30
2019-03-30T04:45:40.540Z,3.33
2019-03-30T04:48:11.539Z,3.27
2019-03-30T04:50:42.435Z,3.04
2019-03-30T04:53:13.143Z,3.07
2019-03-30T04:55:44.216Z,3.18
2019-03-30T04:58:14.971Z,3.27
2019-03-30T05:00:45.719Z,3.18
2019-03-30T05:03:16.453Z,3.27
2019-03-30T05:05:47.275Z,3.25
2019-03-30T05:08:17.983Z,3.31
2019-03-30T05:10:48.966Z,3.48
2019-03-30T05:13:19.742Z,3.46
2019-03-30T05:15:51.013Z,3.69
2019-03-30T05:18:21.779Z,3.93
2019-03-30T05:20:52.491Z,3.99
2019-03-30T05:23:23.221Z,4.25
2019-03-30T05:25:54.092Z,4.16
2019-03-30T05:28:24.827Z,4.67
2019-03-30T05:30:55.541Z,5.04
2019-03-30T05:33:26.249Z,5.72
2019-03-30T05:35:57.068Z,6.13
2019-03-30T05:38:27.812Z,6.18
2019-03-30T05:40:58.562Z,6.33
2019-03-30T05:43:29.307Z,6.63
2019-03-30T05:46:00.158Z,7.22
2019-03-30T05:48:31.064Z,7.28
2019-03-30T05:51:01.823Z,7.36
2019-03-30T05:53:33.675Z,7.96
2019-03-30T05:56:04.707Z,6.85
2019-03-30T05:58:35.449Z,6.43
2019-03-30T06:01:06.260Z,7.86
2019-03-30T06:03:37.088Z,7.84
2019-03-30T06:06:07.937Z,7.90
2019-03-30T06:08:38.700Z,8.18
2019-03-30T06:11:09.495Z,8.74
2019-03-30T06:13:40.227Z,8.41
2019-03-30T06:16:11.673Z,8.95
2019-03-30T06:18:42.421Z,8.88
2019-03-30T06:21:14.291Z,8.99
2019-03-30T06:23:48.407Z,9.81
2019-03-30T06:26:17.600Z,9.23
2019-03-30T06:28:48.363Z,9.75
2019-03-30T06:31:19.154Z,9.44
2019-03-30T06:33:49.880Z,9.34
2019-03-30T06:36:20.717Z,9.32
2019-03-30T06:38:51.946Z,9.02
2019-03-30T06:41:22.768Z,9.82
2019-03-30T06:43:53.497Z,9.18
2019-03-30T06:46:24.747Z,9.51
2019-03-30T06:48:57.631Z,9.42
2019-03-30T06:52:13.438Z,9.70
2019-03-30T06:54:45.819Z,10.64
2019-03-30T06:57:16.737Z,10.17
2019-03-30T06:59:47.481Z,10.48
2019-03-30T07:02:18.443Z,10.89
2019-03-30T07:04:49.519Z,11.01
2019-03-30T07:07:21.081Z,11.40
2019-03-30T07:09:53.445Z,11.39
2019-03-30T07:12:25.759Z,12.29
2019-03-30T07:14:59.301Z,12.35
2019-03-30T07:17:31.855Z,13.14
2019-03-30T07:20:04.144Z,12.10
2019-03-30T07:22:34.911Z,12.79
2019-03-30T07:25:05.932Z,13.16
2019-03-30T07:27:37.914Z,13.86
2019-03-30T07:30:09.124Z,13.43
2019-03-30T07:32:39.987Z,14.88
2019-03-30T07:35:13.063Z,15.34
2019-03-30T07:37:43.971Z,15.29
2019-03-30T07:40:15.059Z,15.68
2019-03-30T07:42:46.026Z,15.64
2019-03-30T07:45:17.101Z,16.08
2019-03-30T07:47:48.092Z,16.36
2019-03-30T07:50:19.410Z,16.16
2019-03-30T07:52:50.276Z,15.75
2019-03-30T07:55:21.139Z,16.68
2019-03-30T07:57:52.146Z,16.95
2019-03-30T08:00:22.996Z,16.34
2019-03-30T08:02:54.281Z,16.09
2019-03-30T08:05:25.074Z,16.64
2019-03-30T08:07:55.955Z,16.47
2019-03-30T08:10:27.341Z,16.44
2019-03-30T08:12:58.421Z,17.30
2019-03-30T08:15:29.294Z,17.74
2019-03-30T08:18:00.558Z,18.26
2019-03-30T08:20:31.502Z,19.86
2019-03-30T08:23:02.608Z,17.38
2019-03-30T08:25:33.369Z,19.88
2019-03-30T08:28:04.418Z,19.85
2019-03-30T08:30:36.535Z,20.28
2019-03-30T08:33:07.323Z,21.69
2019-03-30T08:35:38.168Z,21.94
2019-03-30T08:38:09.074Z,21.67
2019-03-30T08:40:39.868Z,22.67
2019-03-30T08:43:10.886Z,18.52
2019-03-30T08:45:41.663Z,18.68
2019-03-30T08:48:12.543Z,18.72
2019-03-30T08:50:43.381Z,21.56
2019-03-30T08:53:14.208Z,20.48
2019-03-30T08:55:45.056Z,19.01
2019-03-30T08:58:16.646Z,20.51
2019-03-30T09:00:53.687Z,20.62
2019-03-30T09:03:41.943Z,21.86
2019-03-30T09:06:12.743Z,19.88
2019-03-30T09:08:43.660Z,19.45
2019-03-30T09:11:14.524Z,22.37
2019-03-30T09:13:46.526Z,21.47
2019-03-30T09:16:17.331Z,23.17
2019-03-30T09:18:48.538Z,18.66
2019-03-30T09:21:19.362Z,20.80
2019-03-30T09:23:50.190Z,21.39
2019-03-30T09:26:21.154Z,19.54
2019-03-30T09:28:53.952Z,19.33
2019-03-30T09:31:31.907Z,20.83
2019-03-30T09:34:12.768Z,19.56
2019-03-30T09:36:45.326Z,20.30
2019-03-30T09:39:16.258Z,20.04
2019-03-30T09:41:47.093Z,20.59
2019-03-30T09:44:17.977Z,18.09
2019-03-30T09:46:48.768Z,21.31
2019-03-30T09:49:19.613Z,20.84
2019-03-30T09:51:50.448Z,20.66
2019-03-30T09:54:26.313Z,20.89
2019-03-30T09:56:58.824Z,18.98
2019-03-30T09:59:29.816Z,20.84
2019-03-30T10:02:00.670Z,17.28
2019-03-30T10:04:31.472Z,17.45
2019-03-30T10:07:02.234Z,20.24
2019-03-30T10:09:33.044Z,20.65
2019-03-30T10:12:04.100Z,18.43
2019-03-30T10:14:34.938Z,17.07
2019-03-30T10:17:05.772Z,17.16
2019-03-30T10:19:36.679Z,19.99
2019-03-30T10:22:08.699Z,20.03
2019-03-30T10:24:39.586Z,20.15
2019-03-30T10:27:10.352Z,21.41
2019-03-30T10:29:41.469Z,21.42
2019-03-30T10:32:12.328Z,21.48
2019-03-30T10:34:43.131Z,20.48
2019-03-30T10:37:14.051Z,21.70
2019-03-30T10:39:45.101Z,19.91
2019-03-30T10:42:15.951Z,21.15
2019-03-30T10:44:46.869Z,20.16
2019-03-30T10:47:17.638Z,20.22
2019-03-30T10:49:48.596Z,21.14
2019-03-30T10:52:19.647Z,19.37
2019-03-30T10:54:53.046Z,19.26
2019-03-30T10:57:23.419Z,20.69
2019-03-30T10:59:54.569Z,19.42
2019-03-30T11:02:25.445Z,20.35
2019-03-30T11:04:56.357Z,19.79
2019-03-30T11:07:27.165Z,20.13
2019-03-30T11:09:58.385Z,20.61
2019-03-30T11:12:29.244Z,19.90
2019-03-30T11:15:00.375Z,20.79
2019-03-30T11:17:31.231Z,20.22
2019-03-30T11:20:02.447Z,20.26
2019-03-30T11:22:34.581Z,20.47
2019-03-30T11:25:08.467Z,20.26
2019-03-30T11:27:38.201Z,20.25
2019-03-30T11:30:09.317Z,20.05
2019-03-30T11:32:40.313Z,20.45
2019-03-30T11:35:11.198Z,20.27
2019-03-30T11:37:42.023Z,20.66
2019-03-30T11:40:12.960Z,20.54
2019-03-30T11:42:43.754Z,19.57
2019-03-30T11:45:15.023Z,20.44
2019-03-30T11:47:45.811Z,19.48
2019-03-30T11:50:16.675Z,19.52
2019-03-30T11:52:47.458Z,19.63
2019-03-30T11:55:22.121Z,19.08
2019-03-30T11:57:50.851Z,19.88
2019-03-30T12:00:21.850Z,19.64
2019-03-30T12:02:52.690Z,19.79
2019-03-30T12:05:23.559Z,20.18
2019-03-30T12:07:54.382Z,20.79
2019-03-30T12:10:25.199Z,19.57
2019-03-30T12:12:56.053Z,19.45
2019-03-30T12:15:28.177Z,19.24
2019-03-30T12:17:59.087Z,19.52
2019-03-30T12:20:30.130Z,19.45
2019-03-30T12:23:00.917Z,19.48
2019-03-30T12:25:35.778Z,20.24
2019-03-30T12:28:04.344Z,19.54
2019-03-30T12:30:35.229Z,19.37
2019-03-30T12:33:06.007Z,19.44
2019-03-30T12:35:36.873Z,19.62
2019-03-30T12:38:07.774Z,19.49
2019-03-30T12:40:38.584Z,19.78
2019-03-30T12:43:09.393Z,19.06
2019-03-30T12:45:41.586Z,19.28
2019-03-30T12:48:12.348Z,19.46
2019-03-30T12:50:43.194Z,18.89
2019-03-30T12:53:14.031Z,19.20
2019-03-30T12:55:49.434Z,19.81
2019-03-30T12:58:17.509Z,19.54
2019-03-30T13:00:48.543Z,19.19
2019-03-30T13:03:19.455Z,19.36
2019-03-30T13:05:50.254Z,19.23
2019-03-30T13:08:21.255Z,19.57
2019-03-30T13:10:52.122Z,19.24
2019-03-30T13:13:22.981Z,19.54
2019-03-30T13:15:53.947Z,19.46
2019-03-30T13:18:24.843Z,20.03
2019-03-30T13:20:56.221Z,20.24
2019-03-30T13:23:27.030Z,19.77
2019-03-30T13:26:03.882Z,20.27
2019-03-30T13:28:30.510Z,19.38
2019-03-30T13:31:01.578Z,19.07
2019-03-30T13:33:33.880Z,19.43
2019-03-30T13:36:05.397Z,19.72
2019-03-30T13:38:36.227Z,19.42
2019-03-30T13:41:07.022Z,19.26
2019-03-30T13:43:37.795Z,19.18
2019-03-30T13:46:08.716Z,18.92
2019-03-30T13:48:40.564Z,19.31
2019-03-30T13:51:11.358Z,19.33
2019-03-30T13:53:42.083Z,19.60
2019-03-30T13:56:17.298Z,19.17
2019-03-30T13:58:45.335Z,19.15
2019-03-30T14:01:16.311Z,19.48
2019-03-30T14:03:47.070Z,19.78
2019-03-30T14:06:17.948Z,19.65
2019-03-30T14:08:48.787Z,19.47
2019-03-30T14:11:19.590Z,19.51
2019-03-30T14:13:50.326Z,19.12
2019-03-30T14:16:22.199Z,19.43
2019-03-30T14:18:53.013Z,19.40
2019-03-30T14:21:24.022Z,19.61
2019-03-30T14:23:54.759Z,19.02
2019-03-30T14:26:31.632Z,19.20
2019-03-30T14:28:58.048Z,18.98
2019-03-30T14:31:28.914Z,18.99
2019-03-30T14:34:02.206Z,19.30
2019-03-30T14:36:32.979Z,19.43
2019-03-30T14:39:05.759Z,19.73
2019-03-30T14:41:36.774Z,19.73
2019-03-30T14:44:07.509Z,19.50
2019-03-30T14:46:39.392Z,19.85
2019-03-30T14:49:10.240Z,19.67
2019-03-30T14:51:40.999Z,19.45
2019-03-30T14:54:11.765Z,19.37
2019-03-30T14:56:45.818Z,19.13
2019-03-30T14:59:15.202Z,19.32
2019-03-30T15:01:46.031Z,19.18
2019-03-30T15:04:16.761Z,19.09
2019-03-30T15:06:47.523Z,18.95
2019-03-30T15:09:18.320Z,19.38
2019-03-30T15:11:49.103Z,18.92
2019-03-30T15:14:19.840Z,19.32
2019-03-30T15:16:50.662Z,19.10
2019-03-30T15:19:21.499Z,18.83
2019-03-30T15:21:52.734Z,18.83
2019-03-30T15:24:23.508Z,19.15
2019-03-30T15:27:00.079Z,19.13
2019-03-30T15:29:26.868Z,19.00
2019-03-30T15:31:57.808Z,18.97
2019-03-30T15:34:47.439Z,18.81
2019-03-30T15:37:21.222Z,18.64
2019-03-30T15:39:52.096Z,18.60
2019-03-30T15:42:22.873Z,18.88
2019-03-30T15:44:53.651Z,18.92
2019-03-30T15:47:24.957Z,18.69
2019-03-30T15:50:04.734Z,18.90
2019-03-30T15:52:46.721Z,18.66
2019-03-30T15:55:29.657Z,19.01
2019-03-30T15:58:03.157Z,18.79
2019-03-30T16:00:34.226Z,18.28
2019-03-30T16:03:05.106Z,18.59
2019-03-30T16:05:36.930Z,18.43
2019-03-30T16:08:07.841Z,18.29
2019-03-30T16:10:40.757Z,18.43
2019-03-30T16:16:12.360Z,18.36
2019-03-30T16:18:52.014Z,18.42
2019-03-30T16:21:28.018Z,18.33
2019-03-30T16:24:32.703Z,18.10
2019-03-30T16:27:28.232Z,18.34
2019-03-30T16:29:48.643Z,18.14
2019-03-30T16:33:07.394Z,18.25
2019-03-30T16:35:52.723Z,17.97
2019-03-30T16:38:31.632Z,18.32
2019-03-30T16:41:10.100Z,18.12
2019-03-30T16:43:46.947Z,18.02
2019-03-30T16:46:20.736Z,18.13
2019-03-30T16:48:51.521Z,17.90
2019-03-30T16:51:22.492Z,17.95
2019-03-30T16:53:53.258Z,17.51
2019-03-30T16:56:24.108Z,17.60
2019-03-30T16:58:55.011Z,17.60
2019-03-30T17:01:25.789Z,17.38
2019-03-30T17:03:56.591Z,17.39
2019-03-30T17:06:27.545Z,17.33
2019-03-30T17:08:58.258Z,17.53
2019-03-30T17:11:29.048Z,17.63
2019-03-30T17:13:59.849Z,17.17
2019-03-30T17:16:30.608Z,17.37
2019-03-30T17:19:01.363Z,17.30
2019-03-30T17:21:32.174Z,17.01
2019-03-30T17:24:04.472Z,16.83
2019-03-30T17:26:35.301Z,16.87
2019-03-30T17:29:06.043Z,16.92
2019-03-30T17:31:36.868Z,16.79
2019-03-30T17:34:07.724Z,16.88
2019-03-30T17:36:38.828Z,16.72
2019-03-30T17:39:13.613Z,16.66
2019-03-30T17:41:44.490Z,16.51
2019-03-30T17:44:15.308Z,16.48
2019-03-30T17:46:46.092Z,16.46
2019-03-30T17:49:16.851Z,16.31
2019-03-30T17:51:47.874Z,15.83
2019-03-30T17:54:18.693Z,15.76
2019-03-30T17:56:49.484Z,15.71
2019-03-30T17:59:23.535Z,15.71
2019-03-30T18:01:52.722Z,15.90
2019-03-30T18:04:23.588Z,15.91
2019-03-30T18:06:54.494Z,15.99
2019-03-30T18:09:25.450Z,15.83
2019-03-30T18:11:56.230Z,15.79
2019-03-30T18:14:27.448Z,15.50
2019-03-30T18:16:58.306Z,15.25
2019-03-30T18:19:29.055Z,15.06
2019-03-30T18:22:04.029Z,15.11
2019-03-30T18:24:36.412Z,14.60
2019-03-30T18:27:07.306Z,14.78
2019-03-30T18:29:38.091Z,14.95
2019-03-30T18:32:09.030Z,14.55
2019-03-30T18:34:41.130Z,14.38
2019-03-30T18:37:12.395Z,14.27
2019-03-30T18:39:43.190Z,14.27
2019-03-30T18:42:13.935Z,14.12
2019-03-30T18:44:45.981Z,13.97
2019-03-30T18:47:16.739Z,14.04
2019-03-30T18:49:48.563Z,13.83
2019-03-30T18:52:20.033Z,13.78
2019-03-30T18:54:53.150Z,13.60
2019-03-30T18:57:24.065Z,13.63
2019-03-30T18:59:54.845Z,13.41
2019-03-30T19:02:25.710Z,13.38
2019-03-30T19:04:56.447Z,13.26
2019-03-30T19:07:27.434Z,13.28
2019-03-30T19:09:58.187Z,13.15
2019-03-30T19:12:28.994Z,13.00
2019-03-30T19:14:59.829Z,12.92
2019-03-30T19:17:30.689Z,12.93
2019-03-30T19:20:01.513Z,12.92
2019-03-30T19:22:32.387Z,12.80
2019-03-30T19:25:03.525Z,12.82
2019-03-30T19:27:34.398Z,12.69
2019-03-30T19:30:05.531Z,12.52
2019-03-30T19:32:36.280Z,12.39
2019-03-30T19:35:07.194Z,12.28
2019-03-30T19:37:38.051Z,12.18
2019-03-30T19:40:08.947Z,12.21
2019-03-30T19:42:39.703Z,12.14
2019-03-30T19:45:10.578Z,12.04
2019-03-30T19:47:41.403Z,11.96
2019-03-30T19:50:12.361Z,11.87
2019-03-30T19:52:43.273Z,11.80
2019-03-30T19:55:14.313Z,11.80
2019-03-30T19:57:45.219Z,11.68
2019-03-30T20:00:17.386Z,11.55
2019-03-30T20:02:48.221Z,11.45
2019-03-30T20:05:19.085Z,11.41
2019-03-30T20:07:50.032Z,11.12
2019-03-30T20:10:20.881Z,10.98
2019-03-30T20:12:51.721Z,11.02
2019-03-30T20:15:22.524Z,10.98
2019-03-30T20:17:53.555Z,10.92
2019-03-30T20:20:24.336Z,10.98
2019-03-30T20:22:55.210Z,10.80
2019-03-30T20:25:27.152Z,10.50
2019-03-30T20:27:58.532Z,10.57
2019-03-30T20:30:31.268Z,10.54
2019-03-30T20:33:02.635Z,10.47
2019-03-30T20:35:35.451Z,10.51
2019-03-30T20:38:06.815Z,10.10
2019-03-30T20:40:40.208Z,10.20
2019-03-30T20:43:18.220Z,9.95
2019-03-30T20:45:49.484Z,10.08
2019-03-30T20:48:29.457Z,10.20
2019-03-30T20:51:00.779Z,10.16
2019-03-30T20:53:32.653Z,9.87
2019-03-30T20:56:04.732Z,9.48
2019-03-30T20:58:35.611Z,9.31
2019-03-30T21:01:06.918Z,9.44
2019-03-30T21:03:37.782Z,9.68
2019-03-30T21:06:08.546Z,9.31
2019-03-30T21:08:39.681Z,9.41
2019-03-30T21:11:10.501Z,9.42
2019-03-30T21:13:41.345Z,9.16
2019-03-30T21:16:12.209Z,9.26
2019-03-30T21:18:43.006Z,9.31
2019-03-30T21:21:14.029Z,9.32
2019-03-30T21:23:45.093Z,9.31
2019-03-30T21:26:16.381Z,9.25
2019-03-30T21:28:47.171Z,9.16
2019-03-30T21:31:17.915Z,9.02
2019-03-30T21:33:48.903Z,9.08
2019-03-30T21:36:19.689Z,9.16
2019-03-30T21:38:50.550Z,9.11
2019-03-30T21:41:21.313Z,8.72
2019-03-30T21:43:52.173Z,8.68
2019-03-30T21:46:23.054Z,8.68
2019-03-30T21:48:54.317Z,8.75
2019-03-30T21:51:25.088Z,8.91
2019-03-30T21:53:56.168Z,8.83
2019-03-30T21:56:26.985Z,8.64
2019-03-30T21:58:58.347Z,8.35
2019-03-30T22:01:29.080Z,8.47
2019-03-30T22:03:59.952Z,8.43
2019-03-30T22:06:30.863Z,8.55
2019-03-30T22:09:01.971Z,8.37
2019-03-30T22:11:34.182Z,8.16
2019-03-30T22:14:05.331Z,8.17
2019-03-30T22:16:36.063Z,8.21
2019-03-30T22:19:06.866Z,8.23
2019-03-30T22:21:38.701Z,8.13
2019-03-30T22:24:09.644Z,8.16
2019-03-30T22:26:40.819Z,8.35
2019-03-30T22:29:12.575Z,8.39
2019-03-30T22:31:43.426Z,8.45
2019-03-30T22:34:14.316Z,8.33
2019-03-30T22:36:45.056Z,8.24
2019-03-30T22:39:15.950Z,8.56
2019-03-30T22:41:46.732Z,8.46
2019-03-30T22:44:17.587Z,8.41
2019-03-30T22:46:48.374Z,8.28
2019-03-30T22:49:19.160Z,8.11
2019-03-30T22:51:49.923Z,8.14
2019-03-30T22:54:21.037Z,8.22
2019-03-30T22:56:51.840Z,8.22
2019-03-30T22:59:22.620Z,8.20
2019-03-30T23:01:53.394Z,8.16
2019-03-30T23:04:24.247Z,8.09
2019-03-30T23:06:55.032Z,7.95
2019-03-30T23:09:26.088Z,7.92
2019-03-30T23:11:56.858Z,8.03
2019-03-30T23:14:27.875Z,8.06
2019-03-30T23:16:58.611Z,8.13
2019-03-30T23:19:31.671Z,8.09
2019-03-30T23:22:02.412Z,8.08
2019-03-30T23:24:33.339Z,8.12
2019-03-30T23:27:04.296Z,8.11
2019-03-30T23:29:35.069Z,8.23
2019-03-30T23:32:05.922Z,8.12
2019-03-30T23:34:36.845Z,8.04
2019-03-30T23:37:07.639Z,8.02
2019-03-30T23:39:38.512Z,8.11
2019-03-30T23:42:09.352Z,8.12
2019-03-30T23:44:40.187Z,7.93
2019-03-30T23:47:13.087Z,7.95
2019-03-30T23:49:43.859Z,7.93
2019-03-30T23:52:16.687Z,7.83
2019-03-30T23:54:48.756Z,7.85
2019-03-30T23:57:19.571Z,7.90
2019-03-30T23:59:50.367Z,7.79
